Terminal Aerodrome Forecast
Issued by NWS

Home | Current Version | Previous Version | Text Only | Print | Product List | Glossary On
Versions: 1 2 3 4 5 6 7 8 9 10 11 12 13 14 15 16 17 18
000
FTUS43 KIWX 111120
TAFSBN
TAF
KSBN 111120Z 1112/1212 15010KT 1SM -SN BR OVC015
     FM112100 18011KT 1/2SM SN FZFG OVC006
     FM120200 21009KT 1SM -SN BR OVC006
     FM120600 25009KT P6SM BKN008=

USA.gov is the U.S. government's official web portal to all federal, state and local government web resources and services.